Losantville, Indiana
Current Conditions -  °F | °C
As of 7:53 AM on Friday 28 Nov 2014 (Local Time) from KMIE Reporting Station
Overcast Overcast  
Wind Chill: 17°   Ceiling: 8500
Heat Index: 23°   Visibility: 10mi
Dew Point: 17°   Wind: 5mph
Humidity: 78%   Direction: 140°SE
Pressure: 30.34"   Gusts: NA
Location:  40.02°N, 85.18°W
Report Text: KMIE 281253Z 14004KT 10SM OVC085 M05/M08 A3034 RMK AO2 SLP282 T10501083
Loading
Personal Weather Stations






























Interactive Weather Map New forecast layout! Learn more

10-Day Weather Forecast

Advertisements
Track Severe Weather on mobile